sensor_id;sensor_type;location;lat;lon;timestamp;P1;durP1;ratioP1;P2;durP2;ratioP2
75935;SDS011;64614;32.062;34.834;2023-02-12T00:00:35;10.70;;;5.32;;
75935;SDS011;64614;32.062;34.834;2023-02-12T00:03:02;9.60;;;4.75;;
75935;SDS011;64614;32.062;34.834;2023-02-12T00:05:28;9.40;;;4.90;;
75935;SDS011;64614;32.062;34.834;2023-02-12T00:07:56;10.75;;;5.20;;
75935;SDS011;64614;32.062;34.834;2023-02-12T00:10:21;9.73;;;5.18;;
75935;SDS011;64614;32.062;34.834;2023-02-12T00:12:47;10.48;;;5.43;;
75935;SDS011;64614;32.062;34.834;2023-02-12T00:15:13;9.60;;;5.05;;
75935;SDS011;64614;32.062;34.834;2023-02-12T00:17:38;9.13;;;4.90;;
75935;SDS011;64614;32.062;34.834;2023-02-12T00:20:04;11.82;;;5.35;;
75935;SDS011;64614;32.062;34.834;2023-02-12T00:22:30;10.32;;;5.50;;
75935;SDS011;64614;32.062;34.834;2023-02-12T00:24:56;9.75;;;5.35;;
75935;SDS011;64614;32.062;34.834;2023-02-12T00:27:24;10.15;;;5.20;;
75935;SDS011;64614;32.062;34.834;2023-02-12T00:29:50;10.77;;;5.70;;
75935;SDS011;64614;32.062;34.834;2023-02-12T00:32:16;10.70;;;5.22;;
75935;SDS011;64614;32.062;34.834;2023-02-12T00:37:18;9.35;;;4.80;;
75935;SDS011;64614;32.062;34.834;2023-02-12T00:39:44;10.70;;;5.10;;
75935;SDS011;64614;32.062;34.834;2023-02-12T00:42:10;10.77;;;5.63;;
75935;SDS011;64614;32.062;34.834;2023-02-12T00:44:36;10.90;;;4.95;;
75935;SDS011;64614;32.062;34.834;2023-02-12T00:47:02;10.68;;;5.05;;
75935;SDS011;64614;32.062;34.834;2023-02-12T00:49:29;9.43;;;4.95;;
75935;SDS011;64614;32.062;34.834;2023-02-12T00:52:03;11.70;;;5.03;;
75935;SDS011;64614;32.062;34.834;2023-02-12T00:54:29;10.13;;;5.28;;
75935;SDS011;64614;32.062;34.834;2023-02-12T00:56:57;10.30;;;4.95;;
75935;SDS011;64614;32.062;34.834;2023-02-12T00:59:23;12.13;;;5.57;;
75935;SDS011;64614;32.062;34.834;2023-02-12T01:01:50;10.05;;;4.72;;
75935;SDS011;64614;32.062;34.834;2023-02-12T01:04:19;9.73;;;5.07;;
75935;SDS011;64614;32.062;34.834;2023-02-12T01:06:45;11.23;;;5.30;;
75935;SDS011;64614;32.062;34.834;2023-02-12T01:09:11;10.70;;;4.95;;
75935;SDS011;64614;32.062;34.834;2023-02-12T01:11:37;11.65;;;5.53;;
75935;SDS011;64614;32.062;34.834;2023-02-12T01:14:03;12.25;;;5.10;;
75935;SDS011;64614;32.062;34.834;2023-02-12T01:16:30;9.50;;;4.97;;
75935;SDS011;64614;32.062;34.834;2023-02-12T01:18:57;9.60;;;5.13;;
75935;SDS011;64614;32.062;34.834;2023-02-12T01:21:25;10.40;;;4.60;;
75935;SDS011;64614;32.062;34.834;2023-02-12T01:23:53;8.90;;;4.68;;
75935;SDS011;64614;32.062;34.834;2023-02-12T01:26:20;10.85;;;5.05;;
75935;SDS011;64614;32.062;34.834;2023-02-12T01:28:50;10.15;;;4.90;;
75935;SDS011;64614;32.062;34.834;2023-02-12T01:31:18;9.05;;;4.63;;
75935;SDS011;64614;32.062;34.834;2023-02-12T01:36:12;8.20;;;4.35;;
75935;SDS011;64614;32.062;34.834;2023-02-12T01:38:38;8.52;;;4.15;;
75935;SDS011;64614;32.062;34.834;2023-02-12T01:41:05;10.02;;;4.78;;
75935;SDS011;64614;32.062;34.834;2023-02-12T01:43:33;9.40;;;4.40;;
75935;SDS011;64614;32.062;34.834;2023-02-12T01:45:59;8.50;;;4.00;;
75935;SDS011;64614;32.062;34.834;2023-02-12T01:48:30;8.75;;;3.60;;
75935;SDS011;64614;32.062;34.834;2023-02-12T01:51:00;7.78;;;3.60;;
75935;SDS011;64614;32.062;34.834;2023-02-12T01:53:28;6.90;;;3.40;;
75935;SDS011;64614;32.062;34.834;2023-02-12T01:55:59;6.05;;;3.80;;
75935;SDS011;64614;32.062;34.834;2023-02-12T01:58:29;6.70;;;3.15;;
75935;SDS011;64614;32.062;34.834;2023-02-12T02:00:59;8.23;;;3.90;;
75935;SDS011;64614;32.062;34.834;2023-02-12T02:03:31;7.53;;;3.80;;
75935;SDS011;64614;32.062;34.834;2023-02-12T02:06:01;8.27;;;4.03;;
75935;SDS011;64614;32.062;34.834;2023-02-12T02:08:32;7.65;;;3.80;;
75935;SDS011;64614;32.062;34.834;2023-02-12T02:10:58;7.22;;;3.67;;
75935;SDS011;64614;32.062;34.834;2023-02-12T02:13:25;7.35;;;3.58;;
75935;SDS011;64614;32.062;34.834;2023-02-12T02:16:16;7.18;;;3.70;;
75935;SDS011;64614;32.062;34.834;2023-02-12T02:27:20;6.90;;;3.67;;
75935;SDS011;64614;32.062;34.834;2023-02-12T02:35:33;8.55;;;4.10;;
75935;SDS011;64614;32.062;34.834;2023-02-12T02:38:20;6.95;;;3.60;;
75935;SDS011;64614;32.062;34.834;2023-02-12T02:41:02;7.57;;;4.05;;
75935;SDS011;64614;32.062;34.834;2023-02-12T02:43:42;7.22;;;3.40;;
75935;SDS011;64614;32.062;34.834;2023-02-12T02:46:17;7.72;;;3.90;;
75935;SDS011;64614;32.062;34.834;2023-02-12T02:49:07;7.07;;;3.72;;
75935;SDS011;64614;32.062;34.834;2023-02-12T02:51:44;7.97;;;4.00;;
75935;SDS011;64614;32.062;34.834;2023-02-12T02:56:42;7.43;;;3.88;;
75935;SDS011;64614;32.062;34.834;2023-02-12T02:59:13;7.20;;;3.53;;
75935;SDS011;64614;32.062;34.834;2023-02-12T03:01:50;7.60;;;3.90;;
75935;SDS011;64614;32.062;34.834;2023-02-12T03:04:22;6.90;;;3.60;;
75935;SDS011;64614;32.062;34.834;2023-02-12T03:09:31;8.70;;;4.05;;
75935;SDS011;64614;32.062;34.834;2023-02-12T03:12:14;7.20;;;3.70;;
75935;SDS011;64614;32.062;34.834;2023-02-12T03:14:53;8.25;;;3.78;;
75935;SDS011;64614;32.062;34.834;2023-02-12T03:20:06;9.23;;;4.20;;
75935;SDS011;64614;32.062;34.834;2023-02-12T03:22:44;7.50;;;4.03;;
75935;SDS011;64614;32.062;34.834;2023-02-12T03:25:16;6.88;;;3.85;;
75935;SDS011;64614;32.062;34.834;2023-02-12T03:27:57;8.57;;;3.53;;
75935;SDS011;64614;32.062;34.834;2023-02-12T03:30:40;8.63;;;3.72;;
75935;SDS011;64614;32.062;34.834;2023-02-12T03:33:14;7.68;;;3.67;;
75935;SDS011;64614;32.062;34.834;2023-02-12T03:35:59;9.68;;;3.80;;
75935;SDS011;64614;32.062;34.834;2023-02-12T03:38:37;8.93;;;4.30;;
75935;SDS011;64614;32.062;34.834;2023-02-12T03:46:41;7.25;;;3.75;;
75935;SDS011;64614;32.062;34.834;2023-02-12T03:49:16;8.65;;;3.97;;
75935;SDS011;64614;32.062;34.834;2023-02-12T03:51:47;8.13;;;4.13;;
75935;SDS011;64614;32.062;34.834;2023-02-12T03:54:15;7.25;;;3.85;;
75935;SDS011;64614;32.062;34.834;2023-02-12T03:56:47;7.93;;;3.72;;
75935;SDS011;64614;32.062;34.834;2023-02-12T03:59:18;7.63;;;4.00;;
75935;SDS011;64614;32.062;34.834;2023-02-12T04:01:48;9.88;;;4.30;;
75935;SDS011;64614;32.062;34.834;2023-02-12T04:04:16;6.80;;;3.50;;
75935;SDS011;64614;32.062;34.834;2023-02-12T04:06:43;8.18;;;3.90;;
75935;SDS011;64614;32.062;34.834;2023-02-12T04:17:02;6.68;;;3.63;;
75935;SDS011;64614;32.062;34.834;2023-02-12T04:22:17;7.93;;;3.60;;
75935;SDS011;64614;32.062;34.834;2023-02-12T04:25:02;7.05;;;3.45;;
75935;SDS011;64614;32.062;34.834;2023-02-12T04:30:19;6.97;;;3.55;;
75935;SDS011;64614;32.062;34.834;2023-02-12T04:32:52;7.00;;;3.65;;
75935;SDS011;64614;32.062;34.834;2023-02-12T04:38:12;6.93;;;3.58;;
75935;SDS011;64614;32.062;34.834;2023-02-12T04:40:41;6.80;;;3.72;;
75935;SDS011;64614;32.062;34.834;2023-02-12T04:43:09;6.57;;;3.60;;
75935;SDS011;64614;32.062;34.834;2023-02-12T04:45:36;7.15;;;3.90;;
75935;SDS011;64614;32.062;34.834;2023-02-12T04:48:02;6.72;;;3.67;;
75935;SDS011;64614;32.062;34.834;2023-02-12T04:50:38;7.05;;;3.45;;
75935;SDS011;64614;32.062;34.834;2023-02-12T04:53:08;7.65;;;3.80;;
75935;SDS011;64614;32.062;34.834;2023-02-12T04:55:35;7.25;;;3.75;;
75935;SDS011;64614;32.062;34.834;2023-02-12T04:58:01;8.27;;;4.20;;
75935;SDS011;64614;32.062;34.834;2023-02-12T05:00:26;7.28;;;4.25;;
75935;SDS011;64614;32.062;34.834;2023-02-12T05:02:53;9.50;;;4.45;;
75935;SDS011;64614;32.062;34.834;2023-02-12T05:05:19;9.65;;;4.20;;
75935;SDS011;64614;32.062;34.834;2023-02-12T05:07:45;10.68;;;4.10;;
75935;SDS011;64614;32.062;34.834;2023-02-12T05:10:10;9.52;;;4.30;;
75935;SDS011;64614;32.062;34.834;2023-02-12T05:12:37;11.55;;;4.85;;
75935;SDS011;64614;32.062;34.834;2023-02-12T05:15:06;10.88;;;5.32;;
75935;SDS011;64614;32.062;34.834;2023-02-12T05:17:33;12.90;;;5.00;;
75935;SDS011;64614;32.062;34.834;2023-02-12T05:20:00;12.02;;;4.70;;
75935;SDS011;64614;32.062;34.834;2023-02-12T05:22:26;11.48;;;4.28;;
75935;SDS011;64614;32.062;34.834;2023-02-12T05:25:00;9.07;;;4.45;;
75935;SDS011;64614;32.062;34.834;2023-02-12T05:27:26;10.77;;;3.70;;
75935;SDS011;64614;32.062;34.834;2023-02-12T05:46:03;8.38;;;4.45;;
75935;SDS011;64614;32.062;34.834;2023-02-12T05:48:30;7.28;;;4.28;;
75935;SDS011;64614;32.062;34.834;2023-02-12T05:56:15;9.68;;;4.38;;
75935;SDS011;64614;32.062;34.834;2023-02-12T05:58:46;8.77;;;4.13;;
75935;SDS011;64614;32.062;34.834;2023-02-12T06:01:20;7.03;;;3.80;;
75935;SDS011;64614;32.062;34.834;2023-02-12T06:03:53;8.07;;;3.90;;
75935;SDS011;64614;32.062;34.834;2023-02-12T06:06:19;8.50;;;4.20;;
75935;SDS011;64614;32.062;34.834;2023-02-12T06:11:24;9.38;;;4.60;;
75935;SDS011;64614;32.062;34.834;2023-02-12T06:13:52;9.52;;;4.47;;
75935;SDS011;64614;32.062;34.834;2023-02-12T06:16:22;7.43;;;4.50;;
75935;SDS011;64614;32.062;34.834;2023-02-12T06:19:02;9.63;;;3.85;;
75935;SDS011;64614;32.062;34.834;2023-02-12T06:21:29;8.43;;;3.65;;
75935;SDS011;64614;32.062;34.834;2023-02-12T06:23:55;8.05;;;3.53;;
75935;SDS011;64614;32.062;34.834;2023-02-12T06:26:22;8.95;;;4.65;;
75935;SDS011;64614;32.062;34.834;2023-02-12T06:28:48;9.55;;;4.00;;
75935;SDS011;64614;32.062;34.834;2023-02-12T06:31:24;9.93;;;4.43;;
75935;SDS011;64614;32.062;34.834;2023-02-12T06:33:53;9.60;;;4.50;;
75935;SDS011;64614;32.062;34.834;2023-02-12T06:38:49;6.45;;;3.70;;
75935;SDS011;64614;32.062;34.834;2023-02-12T06:41:16;6.72;;;3.75;;
75935;SDS011;64614;32.062;34.834;2023-02-12T06:43:43;8.05;;;3.80;;
75935;SDS011;64614;32.062;34.834;2023-02-12T06:46:09;7.25;;;3.45;;
75935;SDS011;64614;32.062;34.834;2023-02-12T06:48:35;7.65;;;3.90;;
75935;SDS011;64614;32.062;34.834;2023-02-12T06:51:08;6.88;;;3.78;;
75935;SDS011;64614;32.062;34.834;2023-02-12T06:53:36;8.95;;;4.20;;
75935;SDS011;64614;32.062;34.834;2023-02-12T06:56:05;9.02;;;4.55;;
75935;SDS011;64614;32.062;34.834;2023-02-12T06:58:35;8.70;;;4.47;;
75935;SDS011;64614;32.062;34.834;2023-02-12T07:01:15;8.30;;;4.20;;
75935;SDS011;64614;32.062;34.834;2023-02-12T07:03:46;8.55;;;3.83;;
75935;SDS011;64614;32.062;34.834;2023-02-12T07:06:16;8.95;;;3.63;;
75935;SDS011;64614;32.062;34.834;2023-02-12T07:08:42;11.75;;;4.50;;
75935;SDS011;64614;32.062;34.834;2023-02-12T07:11:08;8.98;;;4.63;;
75935;SDS011;64614;32.062;34.834;2023-02-12T07:13:35;8.00;;;4.07;;
75935;SDS011;64614;32.062;34.834;2023-02-12T07:16:03;8.43;;;4.25;;
75935;SDS011;64614;32.062;34.834;2023-02-12T07:18:30;9.50;;;4.22;;
75935;SDS011;64614;32.062;34.834;2023-02-12T07:20:57;8.85;;;4.70;;
75935;SDS011;64614;32.062;34.834;2023-02-12T07:23:22;8.50;;;4.32;;
75935;SDS011;64614;32.062;34.834;2023-02-12T07:25:55;9.32;;;4.22;;
75935;SDS011;64614;32.062;34.834;2023-02-12T07:28:22;7.72;;;4.47;;
75935;SDS011;64614;32.062;34.834;2023-02-12T07:30:48;10.30;;;4.45;;
75935;SDS011;64614;32.062;34.834;2023-02-12T07:33:14;8.68;;;4.25;;
75935;SDS011;64614;32.062;34.834;2023-02-12T07:35:40;8.50;;;4.05;;
75935;SDS011;64614;32.062;34.834;2023-02-12T07:38:06;9.77;;;4.80;;
75935;SDS011;64614;32.062;34.834;2023-02-12T07:40:32;8.02;;;4.35;;
75935;SDS011;64614;32.062;34.834;2023-02-12T07:42:57;8.95;;;4.18;;
75935;SDS011;64614;32.062;34.834;2023-02-12T07:45:23;8.85;;;4.00;;
75935;SDS011;64614;32.062;34.834;2023-02-12T07:47:49;10.10;;;4.35;;
75935;SDS011;64614;32.062;34.834;2023-02-12T07:50:15;8.50;;;4.05;;
75935;SDS011;64614;32.062;34.834;2023-02-12T07:52:40;8.18;;;3.60;;
75935;SDS011;64614;32.062;34.834;2023-02-12T07:55:06;6.40;;;3.08;;
75935;SDS011;64614;32.062;34.834;2023-02-12T07:57:33;7.63;;;3.10;;
75935;SDS011;64614;32.062;34.834;2023-02-12T07:59:59;6.40;;;3.42;;
75935;SDS011;64614;32.062;34.834;2023-02-12T08:02:25;6.75;;;3.20;;
75935;SDS011;64614;32.062;34.834;2023-02-12T08:04:57;6.75;;;3.33;;
75935;SDS011;64614;32.062;34.834;2023-02-12T08:09:58;6.93;;;3.72;;
75935;SDS011;64614;32.062;34.834;2023-02-12T08:12:24;8.48;;;3.30;;
75935;SDS011;64614;32.062;34.834;2023-02-12T08:14:49;6.55;;;3.60;;
75935;SDS011;64614;32.062;34.834;2023-02-12T08:17:15;5.68;;;3.25;;
75935;SDS011;64614;32.062;34.834;2023-02-12T08:19:41;6.00;;;2.97;;
75935;SDS011;64614;32.062;34.834;2023-02-12T08:22:08;6.55;;;3.10;;
75935;SDS011;64614;32.062;34.834;2023-02-12T08:24:33;6.15;;;3.22;;
75935;SDS011;64614;32.062;34.834;2023-02-12T08:26:59;8.18;;;3.20;;
75935;SDS011;64614;32.062;34.834;2023-02-12T08:29:25;5.10;;;2.72;;
75935;SDS011;64614;32.062;34.834;2023-02-12T08:31:58;5.22;;;2.80;;
75935;SDS011;64614;32.062;34.834;2023-02-12T08:34:27;5.25;;;2.60;;
75935;SDS011;64614;32.062;34.834;2023-02-12T08:36:55;5.03;;;2.50;;
75935;SDS011;64614;32.062;34.834;2023-02-12T08:39:23;5.38;;;2.70;;
75935;SDS011;64614;32.062;34.834;2023-02-12T08:41:53;4.82;;;2.75;;
75935;SDS011;64614;32.062;34.834;2023-02-12T08:44:20;4.95;;;2.90;;
75935;SDS011;64614;32.062;34.834;2023-02-12T08:46:47;5.47;;;2.92;;
75935;SDS011;64614;32.062;34.834;2023-02-12T08:49:19;4.78;;;2.67;;
75935;SDS011;64614;32.062;34.834;2023-02-12T08:51:47;6.00;;;2.80;;
75935;SDS011;64614;32.062;34.834;2023-02-12T08:54:20;5.75;;;2.97;;
75935;SDS011;64614;32.062;34.834;2023-02-12T08:56:49;5.03;;;2.60;;
75935;SDS011;64614;32.062;34.834;2023-02-12T08:59:17;4.95;;;2.60;;
75935;SDS011;64614;32.062;34.834;2023-02-12T09:01:43;5.07;;;2.83;;
75935;SDS011;64614;32.062;34.834;2023-02-12T09:04:11;5.50;;;2.90;;
75935;SDS011;64614;32.062;34.834;2023-02-12T09:06:41;5.22;;;2.78;;
75935;SDS011;64614;32.062;34.834;2023-02-12T09:09:08;5.93;;;2.88;;
75935;SDS011;64614;32.062;34.834;2023-02-12T09:11:34;6.10;;;3.17;;
75935;SDS011;64614;32.062;34.834;2023-02-12T09:14:02;4.93;;;2.45;;
75935;SDS011;64614;32.062;34.834;2023-02-12T09:16:31;5.50;;;2.92;;
75935;SDS011;64614;32.062;34.834;2023-02-12T09:18:58;5.10;;;2.80;;
75935;SDS011;64614;32.062;34.834;2023-02-12T09:21:27;5.13;;;2.63;;
75935;SDS011;64614;32.062;34.834;2023-02-12T09:23:54;7.05;;;3.00;;
75935;SDS011;64614;32.062;34.834;2023-02-12T09:26:23;4.93;;;2.80;;
75935;SDS011;64614;32.062;34.834;2023-02-12T09:31:22;5.18;;;2.90;;
75935;SDS011;64614;32.062;34.834;2023-02-12T09:33:52;5.10;;;2.90;;
75935;SDS011;64614;32.062;34.834;2023-02-12T09:36:19;5.07;;;2.63;;
75935;SDS011;64614;32.062;34.834;2023-02-12T09:38:45;4.75;;;2.53;;
75935;SDS011;64614;32.062;34.834;2023-02-12T09:41:21;5.72;;;2.70;;
75935;SDS011;64614;32.062;34.834;2023-02-12T09:47:32;4.53;;;2.60;;
75935;SDS011;64614;32.062;34.834;2023-02-12T09:52:57;5.68;;;2.70;;
75935;SDS011;64614;32.062;34.834;2023-02-12T09:55:34;5.82;;;2.60;;
75935;SDS011;64614;32.062;34.834;2023-02-12T09:58:01;5.47;;;2.75;;
75935;SDS011;64614;32.062;34.834;2023-02-12T10:00:36;6.30;;;2.80;;
75935;SDS011;64614;32.062;34.834;2023-02-12T10:03:03;5.07;;;2.70;;
75935;SDS011;64614;32.062;34.834;2023-02-12T10:05:37;5.53;;;3.08;;
75935;SDS011;64614;32.062;34.834;2023-02-12T10:15:58;6.18;;;2.85;;
75935;SDS011;64614;32.062;34.834;2023-02-12T10:19:40;7.10;;;3.30;;
75935;SDS011;64614;32.062;34.834;2023-02-12T10:27:15;4.95;;;2.70;;
75935;SDS011;64614;32.062;34.834;2023-02-12T10:29:58;5.32;;;3.00;;
75935;SDS011;64614;32.062;34.834;2023-02-12T10:32:27;5.90;;;2.45;;
75935;SDS011;64614;32.062;34.834;2023-02-12T10:34:58;6.93;;;2.90;;
75935;SDS011;64614;32.062;34.834;2023-02-12T10:40:27;4.45;;;2.50;;
75935;SDS011;64614;32.062;34.834;2023-02-12T10:42:58;4.57;;;2.45;;
75935;SDS011;64614;32.062;34.834;2023-02-12T10:45:28;5.75;;;2.55;;
75935;SDS011;64614;32.062;34.834;2023-02-12T10:48:17;5.47;;;2.35;;
75935;SDS011;64614;32.062;34.834;2023-02-12T10:56:17;4.88;;;2.30;;
75935;SDS011;64614;32.062;34.834;2023-02-12T10:58:55;3.60;;;2.28;;
75935;SDS011;64614;32.062;34.834;2023-02-12T11:01:36;5.65;;;2.40;;
75935;SDS011;64614;32.062;34.834;2023-02-12T11:07:02;5.38;;;2.25;;
75935;SDS011;64614;32.062;34.834;2023-02-12T11:09:36;4.68;;;2.53;;
75935;SDS011;64614;32.062;34.834;2023-02-12T11:15:02;4.95;;;2.20;;
75935;SDS011;64614;32.062;34.834;2023-02-12T11:22:34;5.72;;;2.35;;
75935;SDS011;64614;32.062;34.834;2023-02-12T11:25:14;5.63;;;2.60;;
75935;SDS011;64614;32.062;34.834;2023-02-12T11:27:42;4.70;;;2.47;;
75935;SDS011;64614;32.062;34.834;2023-02-12T11:30:18;5.38;;;2.38;;
75935;SDS011;64614;32.062;34.834;2023-02-12T11:32:46;5.80;;;2.10;;
75935;SDS011;64614;32.062;34.834;2023-02-12T11:37:45;6.10;;;2.50;;
75935;SDS011;64614;32.062;34.834;2023-02-12T11:52:17;5.47;;;2.50;;
75935;SDS011;64614;32.062;34.834;2023-02-12T11:54:47;4.47;;;2.17;;
75935;SDS011;64614;32.062;34.834;2023-02-12T11:57:34;5.93;;;2.60;;
75935;SDS011;64614;32.062;34.834;2023-02-12T12:15:38;4.68;;;2.38;;
75935;SDS011;64614;32.062;34.834;2023-02-12T12:21:44;4.38;;;2.22;;
75935;SDS011;64614;32.062;34.834;2023-02-12T12:29:54;5.22;;;2.40;;
75935;SDS011;64614;32.062;34.834;2023-02-12T12:32:32;6.30;;;2.80;;
75935;SDS011;64614;32.062;34.834;2023-02-12T12:35:02;5.13;;;2.40;;
75935;SDS011;64614;32.062;34.834;2023-02-12T12:37:46;3.72;;;2.40;;
75935;SDS011;64614;32.062;34.834;2023-02-12T13:39:59;4.53;;;2.45;;
75935;SDS011;64614;32.062;34.834;2023-02-12T13:42:36;6.15;;;2.38;;
75935;SDS011;64614;32.062;34.834;2023-02-12T13:45:29;7.03;;;2.95;;
75935;SDS011;64614;32.062;34.834;2023-02-12T13:51:07;5.85;;;2.58;;
75935;SDS011;64614;32.062;34.834;2023-02-12T13:59:51;6.60;;;3.00;;
75935;SDS011;64614;32.062;34.834;2023-02-12T14:01:55;6.50;;;2.97;;
75935;SDS011;64614;32.062;34.834;2023-02-12T14:04:25;7.15;;;2.53;;
75935;SDS011;64614;32.062;34.834;2023-02-12T14:20:05;6.28;;;2.90;;
75935;SDS011;64614;32.062;34.834;2023-02-12T14:27:53;7.22;;;2.70;;
75935;SDS011;64614;32.062;34.834;2023-02-12T14:35:33;5.32;;;2.55;;
75935;SDS011;64614;32.062;34.834;2023-02-12T14:40:45;7.70;;;2.70;;
75935;SDS011;64614;32.062;34.834;2023-02-12T14:54:03;6.95;;;2.97;;
75935;SDS011;64614;32.062;34.834;2023-02-12T14:56:40;7.63;;;3.05;;
75935;SDS011;64614;32.062;34.834;2023-02-12T15:01:43;7.57;;;2.78;;
75935;SDS011;64614;32.062;34.834;2023-02-12T15:04:26;5.40;;;2.88;;
75935;SDS011;64614;32.062;34.834;2023-02-12T15:06:56;6.88;;;3.00;;
75935;SDS011;64614;32.062;34.834;2023-02-12T15:09:32;7.00;;;2.78;;
75935;SDS011;64614;32.062;34.834;2023-02-12T15:14:35;5.22;;;2.85;;
75935;SDS011;64614;32.062;34.834;2023-02-12T15:17:08;6.47;;;2.95;;
75935;SDS011;64614;32.062;34.834;2023-02-12T15:19:42;6.25;;;2.95;;
75935;SDS011;64614;32.062;34.834;2023-02-12T15:28:33;6.50;;;2.95;;
75935;SDS011;64614;32.062;34.834;2023-02-12T15:30:48;5.45;;;2.80;;
75935;SDS011;64614;32.062;34.834;2023-02-12T15:36:15;7.32;;;3.10;;
75935;SDS011;64614;32.062;34.834;2023-02-12T15:38:43;6.15;;;2.90;;
75935;SDS011;64614;32.062;34.834;2023-02-12T15:41:36;4.78;;;2.70;;
75935;SDS011;64614;32.062;34.834;2023-02-12T15:44:17;5.18;;;2.80;;
75935;SDS011;64614;32.062;34.834;2023-02-12T15:49:20;7.43;;;2.97;;
75935;SDS011;64614;32.062;34.834;2023-02-12T15:51:55;4.93;;;2.72;;
75935;SDS011;64614;32.062;34.834;2023-02-12T15:54:23;6.32;;;2.95;;
75935;SDS011;64614;32.062;34.834;2023-02-12T15:56:50;6.32;;;2.80;;
75935;SDS011;64614;32.062;34.834;2023-02-12T15:59:19;6.55;;;2.95;;
75935;SDS011;64614;32.062;34.834;2023-02-12T16:01:54;5.75;;;3.20;;
75935;SDS011;64614;32.062;34.834;2023-02-12T16:04:27;7.75;;;3.97;;
75935;SDS011;64614;32.062;34.834;2023-02-12T16:06:57;7.97;;;4.03;;
75935;SDS011;64614;32.062;34.834;2023-02-12T16:09:27;11.13;;;6.93;;
75935;SDS011;64614;32.062;34.834;2023-02-12T16:11:57;12.85;;;8.80;;
75935;SDS011;64614;32.062;34.834;2023-02-12T16:14:41;14.00;;;10.30;;
75935;SDS011;64614;32.062;34.834;2023-02-12T16:17:20;13.07;;;10.07;;
75935;SDS011;64614;32.062;34.834;2023-02-12T16:19:53;17.10;;;10.93;;
75935;SDS011;64614;32.062;34.834;2023-02-12T16:22:19;17.45;;;10.80;;
75935;SDS011;64614;32.062;34.834;2023-02-12T16:24:51;16.15;;;12.15;;
75935;SDS011;64614;32.062;34.834;2023-02-12T16:30:35;15.10;;;11.05;;
75935;SDS011;64614;32.062;34.834;2023-02-12T16:33:30;16.13;;;10.52;;
75935;SDS011;64614;32.062;34.834;2023-02-12T16:38:42;14.55;;;10.45;;
75935;SDS011;64614;32.062;34.834;2023-02-12T16:46:28;14.27;;;9.70;;
75935;SDS011;64614;32.062;34.834;2023-02-12T16:48:57;14.38;;;9.20;;
75935;SDS011;64614;32.062;34.834;2023-02-12T16:51:34;14.32;;;9.73;;
75935;SDS011;64614;32.062;34.834;2023-02-12T16:54:01;14.63;;;8.98;;
75935;SDS011;64614;32.062;34.834;2023-02-12T16:56:48;13.77;;;9.25;;
75935;SDS011;64614;32.062;34.834;2023-02-12T16:59:14;13.38;;;8.52;;
75935;SDS011;64614;32.062;34.834;2023-02-12T17:01:40;13.38;;;8.27;;
75935;SDS011;64614;32.062;34.834;2023-02-12T17:04:19;13.75;;;8.38;;
75935;SDS011;64614;32.062;34.834;2023-02-12T17:09:21;13.43;;;8.13;;
75935;SDS011;64614;32.062;34.834;2023-02-12T17:11:46;14.77;;;7.55;;
75935;SDS011;64614;32.062;34.834;2023-02-12T17:14:13;11.75;;;6.82;;
75935;SDS011;64614;32.062;34.834;2023-02-12T17:16:42;12.63;;;7.35;;
75935;SDS011;64614;32.062;34.834;2023-02-12T17:19:08;13.02;;;6.97;;
75935;SDS011;64614;32.062;34.834;2023-02-12T17:32:35;12.88;;;5.95;;
75935;SDS011;64614;32.062;34.834;2023-02-12T17:35:02;14.02;;;6.60;;
75935;SDS011;64614;32.062;34.834;2023-02-12T17:37:27;12.45;;;6.18;;
75935;SDS011;64614;32.062;34.834;2023-02-12T17:39:53;14.82;;;6.93;;
75935;SDS011;64614;32.062;34.834;2023-02-12T17:42:20;13.25;;;6.15;;
75935;SDS011;64614;32.062;34.834;2023-02-12T17:44:51;12.30;;;6.32;;
75935;SDS011;64614;32.062;34.834;2023-02-12T17:47:16;11.60;;;6.90;;
75935;SDS011;64614;32.062;34.834;2023-02-12T17:49:42;10.95;;;5.80;;
75935;SDS011;64614;32.062;34.834;2023-02-12T17:52:08;9.82;;;5.45;;
75935;SDS011;64614;32.062;34.834;2023-02-12T17:54:35;12.05;;;6.40;;
75935;SDS011;64614;32.062;34.834;2023-02-12T17:57:01;10.57;;;6.22;;
75935;SDS011;64614;32.062;34.834;2023-02-12T17:59:27;10.35;;;5.93;;
75935;SDS011;64614;32.062;34.834;2023-02-12T18:01:54;15.68;;;6.10;;
75935;SDS011;64614;32.062;34.834;2023-02-12T18:04:20;12.15;;;5.65;;
75935;SDS011;64614;32.062;34.834;2023-02-12T18:06:45;10.90;;;4.95;;
75935;SDS011;64614;32.062;34.834;2023-02-12T18:09:12;15.48;;;5.85;;
75935;SDS011;64614;32.062;34.834;2023-02-12T18:11:39;10.82;;;5.78;;
75935;SDS011;64614;32.062;34.834;2023-02-12T18:14:06;11.60;;;5.03;;
75935;SDS011;64614;32.062;34.834;2023-02-12T18:16:32;10.60;;;5.63;;
75935;SDS011;64614;32.062;34.834;2023-02-12T18:18:59;10.75;;;5.20;;
75935;SDS011;64614;32.062;34.834;2023-02-12T18:21:28;12.43;;;5.93;;
75935;SDS011;64614;32.062;34.834;2023-02-12T18:23:55;10.27;;;5.85;;
75935;SDS011;64614;32.062;34.834;2023-02-12T18:26:22;8.73;;;4.93;;
75935;SDS011;64614;32.062;34.834;2023-02-12T18:28:49;9.45;;;5.50;;
75935;SDS011;64614;32.062;34.834;2023-02-12T18:31:15;8.05;;;5.05;;
75935;SDS011;64614;32.062;34.834;2023-02-12T18:33:43;8.75;;;4.60;;
75935;SDS011;64614;32.062;34.834;2023-02-12T18:36:10;10.23;;;5.15;;
75935;SDS011;64614;32.062;34.834;2023-02-12T18:38:38;10.50;;;5.07;;
75935;SDS011;64614;32.062;34.834;2023-02-12T18:41:06;8.20;;;5.00;;
75935;SDS011;64614;32.062;34.834;2023-02-12T18:43:37;8.27;;;4.82;;
75935;SDS011;64614;32.062;34.834;2023-02-12T18:46:07;11.57;;;5.43;;
75935;SDS011;64614;32.062;34.834;2023-02-12T18:48:36;9.27;;;4.50;;
75935;SDS011;64614;32.062;34.834;2023-02-12T18:51:03;9.93;;;4.60;;
75935;SDS011;64614;32.062;34.834;2023-02-12T18:53:29;8.23;;;4.80;;
75935;SDS011;64614;32.062;34.834;2023-02-12T18:55:55;8.82;;;4.85;;
75935;SDS011;64614;32.062;34.834;2023-02-12T18:58:21;9.75;;;4.90;;
75935;SDS011;64614;32.062;34.834;2023-02-12T19:00:47;11.90;;;5.55;;
75935;SDS011;64614;32.062;34.834;2023-02-12T19:03:13;9.95;;;4.88;;
75935;SDS011;64614;32.062;34.834;2023-02-12T19:05:39;9.45;;;5.25;;
75935;SDS011;64614;32.062;34.834;2023-02-12T19:08:05;9.90;;;4.65;;
75935;SDS011;64614;32.062;34.834;2023-02-12T19:10:31;10.82;;;4.93;;
75935;SDS011;64614;32.062;34.834;2023-02-12T19:12:57;10.25;;;5.18;;
75935;SDS011;64614;32.062;34.834;2023-02-12T19:15:23;9.90;;;4.90;;
75935;SDS011;64614;32.062;34.834;2023-02-12T19:17:49;9.18;;;4.93;;
75935;SDS011;64614;32.062;34.834;2023-02-12T19:20:15;10.82;;;5.28;;
75935;SDS011;64614;32.062;34.834;2023-02-12T19:22:42;9.63;;;4.95;;
75935;SDS011;64614;32.062;34.834;2023-02-12T19:25:08;8.82;;;4.65;;
75935;SDS011;64614;32.062;34.834;2023-02-12T19:27:34;9.32;;;5.10;;
75935;SDS011;64614;32.062;34.834;2023-02-12T19:30:00;9.30;;;4.72;;
75935;SDS011;64614;32.062;34.834;2023-02-12T19:32:28;8.38;;;4.65;;
75935;SDS011;64614;32.062;34.834;2023-02-12T19:34:53;9.02;;;4.60;;
75935;SDS011;64614;32.062;34.834;2023-02-12T19:37:19;11.20;;;4.82;;
75935;SDS011;64614;32.062;34.834;2023-02-12T19:39:50;7.97;;;4.07;;
75935;SDS011;64614;32.062;34.834;2023-02-12T19:42:16;8.57;;;4.35;;
75935;SDS011;64614;32.062;34.834;2023-02-12T19:44:42;9.90;;;4.90;;
75935;SDS011;64614;32.062;34.834;2023-02-12T19:47:11;7.95;;;4.07;;
75935;SDS011;64614;32.062;34.834;2023-02-12T19:49:38;9.00;;;4.00;;
75935;SDS011;64614;32.062;34.834;2023-02-12T19:52:06;10.07;;;4.35;;